sensor_id;sensor_type;location;lat;lon;timestamp;noise_LAeq;noise_LA_min;noise_LA_max;noise_LA01;noise_LA95
49568;Laerm;35474;51.032;6.998;2023-07-13T00:00:34;49.06;41.53;69.70;;
49568;Laerm;35474;51.032;6.998;2023-07-13T00:03:03;56.57;41.68;80.55;;
49568;Laerm;35474;51.032;6.998;2023-07-13T00:05:31;44.07;40.71;57.12;;
49568;Laerm;35474;51.032;6.998;2023-07-13T00:07:58;58.54;41.30;77.74;;
49568;Laerm;35474;51.032;6.998;2023-07-13T00:10:24;44.44;41.53;61.70;;
49568;Laerm;35474;51.032;6.998;2023-07-13T00:12:52;53.46;40.98;77.03;;
49568;Laerm;35474;51.032;6.998;2023-07-13T00:15:25;46.34;40.13;65.62;;
49568;Laerm;35474;51.032;6.998;2023-07-13T00:17:54;54.99;41.22;70.85;;
49568;Laerm;35474;51.032;6.998;2023-07-13T00:20:22;45.42;40.88;63.62;;
49568;Laerm;35474;51.032;6.998;2023-07-13T00:22:52;63.83;40.62;85.89;;
49568;Laerm;35474;51.032;6.998;2023-07-13T00:25:23;63.80;40.80;90.71;;
49568;Laerm;35474;51.032;6.998;2023-07-13T00:27:50;57.68;39.08;78.88;;
49568;Laerm;35474;51.032;6.998;2023-07-13T00:30:17;58.12;40.23;81.57;;
49568;Laerm;35474;51.032;6.998;2023-07-13T00:32:44;51.57;40.62;72.67;;
49568;Laerm;35474;51.032;6.998;2023-07-13T00:35:13;59.17;41.46;81.46;;
49568;Laerm;35474;51.032;6.998;2023-07-13T00:37:40;58.59;38.95;84.55;;
49568;Laerm;35474;51.032;6.998;2023-07-13T00:40:08;57.67;40.98;79.72;;
49568;Laerm;35474;51.032;6.998;2023-07-13T00:42:36;63.46;41.22;87.47;;
49568;Laerm;35474;51.032;6.998;2023-07-13T00:47:40;53.79;40.13;71.03;;
49568;Laerm;35474;51.032;6.998;2023-07-13T00:50:09;60.18;41.30;82.16;;
49568;Laerm;35474;51.032;6.998;2023-07-13T00:52:38;58.44;41.96;84.91;;
49568;Laerm;35474;51.032;6.998;2023-07-13T00:55:06;56.95;41.30;78.68;;
49568;Laerm;35474;51.032;6.998;2023-07-13T00:57:33;57.27;41.22;84.28;;
49568;Laerm;35474;51.032;6.998;2023-07-13T01:00:03;54.09;40.53;77.04;;
49568;Laerm;35474;51.032;6.998;2023-07-13T01:02:33;56.44;41.06;78.23;;
49568;Laerm;35474;51.032;6.998;2023-07-13T01:05:00;58.83;41.75;78.38;;
49568;Laerm;35474;51.032;6.998;2023-07-13T01:07:28;51.78;41.38;74.36;;
49568;Laerm;35474;51.032;6.998;2023-07-13T01:09:54;53.40;41.61;75.44;;
49568;Laerm;35474;51.032;6.998;2023-07-13T01:12:21;49.13;41.22;70.39;;
49568;Laerm;35474;51.032;6.998;2023-07-13T01:14:47;55.56;40.62;78.59;;
49568;Laerm;35474;51.032;6.998;2023-07-13T01:17:14;62.63;40.98;89.07;;
49568;Laerm;35474;51.032;6.998;2023-07-13T01:19:43;58.28;40.03;81.24;;
49568;Laerm;35474;51.032;6.998;2023-07-13T01:22:15;56.04;41.38;78.38;;
49568;Laerm;35474;51.032;6.998;2023-07-13T01:24:43;53.55;41.46;77.98;;
49568;Laerm;35474;51.032;6.998;2023-07-13T01:27:13;57.72;41.61;76.05;;
49568;Laerm;35474;51.032;6.998;2023-07-13T01:29:41;46.44;41.82;63.62;;
49568;Laerm;35474;51.032;6.998;2023-07-13T01:32:10;46.95;40.89;68.28;;
49568;Laerm;35474;51.032;6.998;2023-07-13T01:34:37;50.94;41.14;67.56;;
49568;Laerm;35474;51.032;6.998;2023-07-13T01:37:05;52.80;41.46;74.78;;
49568;Laerm;35474;51.032;6.998;2023-07-13T01:39:31;61.73;41.38;85.93;;
49568;Laerm;35474;51.032;6.998;2023-07-13T01:41:58;45.13;41.68;59.30;;
49568;Laerm;35474;51.032;6.998;2023-07-13T01:44:25;55.74;41.22;81.09;;
49568;Laerm;35474;51.032;6.998;2023-07-13T01:46:52;52.19;41.61;67.21;;
49568;Laerm;35474;51.032;6.998;2023-07-13T01:49:19;48.61;42.59;63.26;;
49568;Laerm;35474;51.032;6.998;2023-07-13T01:51:45;49.65;41.30;64.71;;
49568;Laerm;35474;51.032;6.998;2023-07-13T01:54:12;50.44;41.96;72.93;;
49568;Laerm;35474;51.032;6.998;2023-07-13T01:56:38;46.67;42.29;69.59;;
49568;Laerm;35474;51.032;6.998;2023-07-13T01:59:06;56.04;40.62;84.07;;
49568;Laerm;35474;51.032;6.998;2023-07-13T02:01:32;64.28;41.68;85.74;;
49568;Laerm;35474;51.032;6.998;2023-07-13T02:03:59;52.00;41.68;71.39;;
49568;Laerm;35474;51.032;6.998;2023-07-13T02:06:25;53.87;40.03;73.56;;
49568;Laerm;35474;51.032;6.998;2023-07-13T02:08:52;57.96;41.61;81.37;;
49568;Laerm;35474;51.032;6.998;2023-07-13T02:11:19;44.48;41.38;60.84;;
49568;Laerm;35474;51.032;6.998;2023-07-13T02:13:46;60.57;42.29;82.61;;
49568;Laerm;35474;51.032;6.998;2023-07-13T02:16:12;50.55;41.38;75.22;;
49568;Laerm;35474;51.032;6.998;2023-07-13T02:18:39;61.13;42.29;89.20;;
49568;Laerm;35474;51.032;6.998;2023-07-13T02:21:06;51.11;41.75;66.80;;
49568;Laerm;35474;51.032;6.998;2023-07-13T02:23:34;55.68;41.53;77.69;;
49568;Laerm;35474;51.032;6.998;2023-07-13T02:26:04;50.90;41.89;70.20;;
49568;Laerm;35474;51.032;6.998;2023-07-13T02:28:31;53.70;42.03;71.25;;
49568;Laerm;35474;51.032;6.998;2023-07-13T02:31:05;52.87;42.58;76.35;;
49568;Laerm;35474;51.032;6.998;2023-07-13T02:33:32;53.73;42.82;77.00;;
49568;Laerm;35474;51.032;6.998;2023-07-13T02:35:58;48.45;41.68;68.86;;
49568;Laerm;35474;51.032;6.998;2023-07-13T02:38:25;55.05;42.29;74.74;;
49568;Laerm;35474;51.032;6.998;2023-07-13T02:40:52;56.89;43.44;66.98;;
49568;Laerm;35474;51.032;6.998;2023-07-13T02:43:18;52.80;43.44;69.18;;
49568;Laerm;35474;51.032;6.998;2023-07-13T02:45:46;53.90;43.14;65.92;;
49568;Laerm;35474;51.032;6.998;2023-07-13T02:48:13;56.97;42.88;71.40;;
49568;Laerm;35474;51.032;6.998;2023-07-13T02:50:40;52.63;43.09;67.25;;
49568;Laerm;35474;51.032;6.998;2023-07-13T02:53:07;50.74;43.19;65.16;;
49568;Laerm;35474;51.032;6.998;2023-07-13T02:55:33;57.19;42.82;73.77;;
49568;Laerm;35474;51.032;6.998;2023-07-13T02:58:00;59.12;42.82;83.59;;
49568;Laerm;35474;51.032;6.998;2023-07-13T03:00:27;56.86;41.96;78.47;;
49568;Laerm;35474;51.032;6.998;2023-07-13T03:02:54;55.56;43.09;69.06;;
49568;Laerm;35474;51.032;6.998;2023-07-13T03:05:23;60.39;43.90;71.19;;
49568;Laerm;35474;51.032;6.998;2023-07-13T03:07:50;59.93;43.68;71.63;;
49568;Laerm;35474;51.032;6.998;2023-07-13T03:10:16;55.62;42.22;68.51;;
49568;Laerm;35474;51.032;6.998;2023-07-13T03:12:43;56.51;43.94;67.00;;
49568;Laerm;35474;51.032;6.998;2023-07-13T03:15:09;56.59;41.96;83.64;;
49568;Laerm;35474;51.032;6.998;2023-07-13T03:17:36;61.84;42.41;82.75;;
49568;Laerm;35474;51.032;6.998;2023-07-13T03:20:03;60.67;43.34;72.79;;
49568;Laerm;35474;51.032;6.998;2023-07-13T03:22:29;60.38;43.63;85.53;;
49568;Laerm;35474;51.032;6.998;2023-07-13T03:24:56;60.57;43.29;78.60;;
49568;Laerm;35474;51.032;6.998;2023-07-13T03:27:22;56.80;43.29;68.66;;
49568;Laerm;35474;51.032;6.998;2023-07-13T03:29:49;57.10;42.76;73.70;;
49568;Laerm;35474;51.032;6.998;2023-07-13T03:32:15;62.37;47.00;75.85;;
49568;Laerm;35474;51.032;6.998;2023-07-13T03:34:42;59.33;44.43;70.15;;
49568;Laerm;35474;51.032;6.998;2023-07-13T03:37:08;61.15;44.27;74.11;;
49568;Laerm;35474;51.032;6.998;2023-07-13T03:39:35;59.90;43.86;68.95;;
49568;Laerm;35474;51.032;6.998;2023-07-13T03:42:02;60.50;43.86;70.30;;
49568;Laerm;35474;51.032;6.998;2023-07-13T03:44:28;62.32;44.59;72.69;;
49568;Laerm;35474;51.032;6.998;2023-07-13T03:46:55;63.19;44.47;84.22;;
49568;Laerm;35474;51.032;6.998;2023-07-13T03:49:21;63.37;45.30;74.24;;
49568;Laerm;35474;51.032;6.998;2023-07-13T03:51:48;67.38;46.33;90.95;;
49568;Laerm;35474;51.032;6.998;2023-07-13T03:54:18;64.30;43.49;89.13;;
49568;Laerm;35474;51.032;6.998;2023-07-13T03:56:44;65.39;43.90;86.97;;
49568;Laerm;35474;51.032;6.998;2023-07-13T03:59:11;63.56;45.07;78.00;;
49568;Laerm;35474;51.032;6.998;2023-07-13T04:01:37;66.33;44.90;89.02;;
49568;Laerm;35474;51.032;6.998;2023-07-13T04:04:04;66.22;45.48;91.51;;
49568;Laerm;35474;51.032;6.998;2023-07-13T04:06:31;62.40;44.69;79.95;;
49568;Laerm;35474;51.032;6.998;2023-07-13T04:09:00;60.43;43.54;80.95;;
49568;Laerm;35474;51.032;6.998;2023-07-13T04:11:29;65.68;45.54;90.47;;
49568;Laerm;35474;51.032;6.998;2023-07-13T04:13:56;62.05;43.99;74.58;;
49568;Laerm;35474;51.032;6.998;2023-07-13T04:16:22;61.82;45.86;73.62;;
49568;Laerm;35474;51.032;6.998;2023-07-13T04:18:50;61.60;44.58;76.46;;
49568;Laerm;35474;51.032;6.998;2023-07-13T04:21:20;61.01;46.52;70.35;;
49568;Laerm;35474;51.032;6.998;2023-07-13T04:23:47;64.28;45.11;77.06;;
49568;Laerm;35474;51.032;6.998;2023-07-13T04:26:13;62.10;45.99;72.49;;
49568;Laerm;35474;51.032;6.998;2023-07-13T04:28:40;63.23;45.07;75.91;;
49568;Laerm;35474;51.032;6.998;2023-07-13T04:31:06;68.07;45.51;92.83;;
49568;Laerm;35474;51.032;6.998;2023-07-13T04:33:33;63.58;45.75;79.53;;
49568;Laerm;35474;51.032;6.998;2023-07-13T04:36:00;62.84;45.42;70.93;;
49568;Laerm;35474;51.032;6.998;2023-07-13T04:38:29;64.69;50.31;74.94;;
49568;Laerm;35474;51.032;6.998;2023-07-13T04:40:58;59.29;44.62;77.65;;
49568;Laerm;35474;51.032;6.998;2023-07-13T04:43:26;66.67;47.40;86.61;;
49568;Laerm;35474;51.032;6.998;2023-07-13T04:45:53;65.45;51.82;74.92;;
49568;Laerm;35474;51.032;6.998;2023-07-13T04:48:20;64.65;44.76;73.64;;
49568;Laerm;35474;51.032;6.998;2023-07-13T04:50:47;63.01;45.83;71.10;;
49568;Laerm;35474;51.032;6.998;2023-07-13T04:53:14;63.65;43.77;77.51;;
49568;Laerm;35474;51.032;6.998;2023-07-13T04:55:40;63.84;45.57;81.93;;
49568;Laerm;35474;51.032;6.998;2023-07-13T04:58:07;63.50;45.69;82.05;;
49568;Laerm;35474;51.032;6.998;2023-07-13T05:00:34;63.77;47.22;84.09;;
49568;Laerm;35474;51.032;6.998;2023-07-13T05:03:02;66.77;51.98;85.74;;
49568;Laerm;35474;51.032;6.998;2023-07-13T05:05:28;64.11;51.57;90.88;;
49568;Laerm;35474;51.032;6.998;2023-07-13T05:07:55;62.79;45.07;77.98;;
49568;Laerm;35474;51.032;6.998;2023-07-13T05:10:22;68.68;53.32;88.34;;
49568;Laerm;35474;51.032;6.998;2023-07-13T05:12:49;68.37;47.74;88.21;;
49568;Laerm;35474;51.032;6.998;2023-07-13T05:15:16;63.12;48.18;70.29;;
49568;Laerm;35474;51.032;6.998;2023-07-13T05:17:48;63.49;43.68;81.09;;
49568;Laerm;35474;51.032;6.998;2023-07-13T05:20:15;68.81;43.99;90.25;;
49568;Laerm;35474;51.032;6.998;2023-07-13T05:22:42;64.46;44.97;82.51;;
49568;Laerm;35474;51.032;6.998;2023-07-13T05:25:09;65.59;51.91;78.71;;
49568;Laerm;35474;51.032;6.998;2023-07-13T05:27:36;65.95;47.68;80.74;;
49568;Laerm;35474;51.032;6.998;2023-07-13T05:30:03;62.72;48.34;78.09;;
49568;Laerm;35474;51.032;6.998;2023-07-13T05:32:30;64.26;54.29;81.09;;
49568;Laerm;35474;51.032;6.998;2023-07-13T05:34:57;63.16;47.93;71.00;;
49568;Laerm;35474;51.032;6.998;2023-07-13T05:37:23;62.32;46.66;77.35;;
49568;Laerm;35474;51.032;6.998;2023-07-13T05:39:50;67.03;47.46;90.47;;
49568;Laerm;35474;51.032;6.998;2023-07-13T05:42:16;65.21;45.07;81.98;;
49568;Laerm;35474;51.032;6.998;2023-07-13T05:44:45;63.58;45.20;75.36;;
49568;Laerm;35474;51.032;6.998;2023-07-13T05:47:11;64.36;47.10;84.54;;
49568;Laerm;35474;51.032;6.998;2023-07-13T05:49:41;65.84;48.42;81.85;;
49568;Laerm;35474;51.032;6.998;2023-07-13T05:52:07;64.96;45.63;82.31;;
49568;Laerm;35474;51.032;6.998;2023-07-13T05:54:35;62.60;44.83;74.92;;
49568;Laerm;35474;51.032;6.998;2023-07-13T05:57:02;64.18;46.48;84.01;;
49568;Laerm;35474;51.032;6.998;2023-07-13T05:59:28;64.99;45.97;82.24;;
49568;Laerm;35474;51.032;6.998;2023-07-13T06:01:55;62.54;46.38;79.31;;
49568;Laerm;35474;51.032;6.998;2023-07-13T06:04:21;62.34;44.87;80.49;;
49568;Laerm;35474;51.032;6.998;2023-07-13T06:06:48;64.02;45.48;71.94;;
49568;Laerm;35474;51.032;6.998;2023-07-13T06:09:14;68.17;50.87;80.66;;
49568;Laerm;35474;51.032;6.998;2023-07-13T06:11:41;68.02;58.01;84.97;;
49568;Laerm;35474;51.032;6.998;2023-07-13T06:14:07;64.20;46.97;80.41;;
49568;Laerm;35474;51.032;6.998;2023-07-13T06:16:34;70.43;50.00;91.87;;
49568;Laerm;35474;51.032;6.998;2023-07-13T06:19:01;63.60;46.23;81.93;;
49568;Laerm;35474;51.032;6.998;2023-07-13T06:21:28;61.84;45.60;79.19;;
49568;Laerm;35474;51.032;6.998;2023-07-13T06:23:54;71.54;56.89;93.28;;
49568;Laerm;35474;51.032;6.998;2023-07-13T06:26:21;70.68;55.33;90.69;;
49568;Laerm;35474;51.032;6.998;2023-07-13T06:28:48;64.01;45.83;74.04;;
49568;Laerm;35474;51.032;6.998;2023-07-13T06:32:34;72.46;53.82;95.85;;
49568;Laerm;35474;51.032;6.998;2023-07-13T06:35:05;69.70;50.57;90.88;;
49568;Laerm;35474;51.032;6.998;2023-07-13T06:37:31;66.91;50.74;87.18;;
49568;Laerm;35474;51.032;6.998;2023-07-13T06:39:59;67.52;48.28;85.45;;
49568;Laerm;35474;51.032;6.998;2023-07-13T06:42:26;68.16;50.66;86.79;;
49568;Laerm;35474;51.032;6.998;2023-07-13T06:44:52;71.08;56.25;91.87;;
49568;Laerm;35474;51.032;6.998;2023-07-13T06:47:19;62.78;50.00;79.80;;
49568;Laerm;35474;51.032;6.998;2023-07-13T06:49:45;62.89;46.87;77.94;;
49568;Laerm;35474;51.032;6.998;2023-07-13T06:52:12;64.43;51.37;75.55;;
49568;Laerm;35474;51.032;6.998;2023-07-13T06:54:38;63.77;48.02;72.81;;
49568;Laerm;35474;51.032;6.998;2023-07-13T06:57:05;65.70;46.84;86.37;;
49568;Laerm;35474;51.032;6.998;2023-07-13T06:59:31;64.14;47.26;71.55;;
49568;Laerm;35474;51.032;6.998;2023-07-13T07:01:58;64.33;54.79;74.13;;
49568;Laerm;35474;51.032;6.998;2023-07-13T07:04:24;65.54;51.52;83.01;;
49568;Laerm;35474;51.032;6.998;2023-07-13T07:06:52;63.28;48.71;75.28;;
49568;Laerm;35474;51.032;6.998;2023-07-13T07:09:18;64.41;44.51;80.50;;
49568;Laerm;35474;51.032;6.998;2023-07-13T07:11:45;71.03;54.36;93.09;;
49568;Laerm;35474;51.032;6.998;2023-07-13T07:14:27;65.74;45.73;84.73;;
49568;Laerm;35474;51.032;6.998;2023-07-13T07:16:54;67.14;47.40;89.32;;
49568;Laerm;35474;51.032;6.998;2023-07-13T07:19:21;73.62;51.80;101.80;;
49568;Laerm;35474;51.032;6.998;2023-07-13T07:21:47;70.02;46.59;87.89;;
49568;Laerm;35474;51.032;6.998;2023-07-13T07:24:14;70.80;45.42;94.62;;
49568;Laerm;35474;51.032;6.998;2023-07-13T07:26:41;66.76;46.78;87.78;;
49568;Laerm;35474;51.032;6.998;2023-07-13T07:29:11;70.33;49.47;89.99;;
49568;Laerm;35474;51.032;6.998;2023-07-13T07:31:40;71.41;51.50;95.03;;
49568;Laerm;35474;51.032;6.998;2023-07-13T07:34:10;67.82;53.70;87.49;;
49568;Laerm;35474;51.032;6.998;2023-07-13T07:36:36;64.93;49.75;82.67;;
49568;Laerm;35474;51.032;6.998;2023-07-13T07:39:05;67.75;48.36;87.24;;
49568;Laerm;35474;51.032;6.998;2023-07-13T07:41:32;66.70;53.12;89.33;;
49568;Laerm;35474;51.032;6.998;2023-07-13T07:44:02;68.39;49.84;90.01;;
49568;Laerm;35474;51.032;6.998;2023-07-13T07:46:30;72.42;50.79;97.95;;
49568;Laerm;35474;51.032;6.998;2023-07-13T07:48:56;71.72;52.51;89.83;;
49568;Laerm;35474;51.032;6.998;2023-07-13T07:51:23;66.26;52.51;86.39;;
49568;Laerm;35474;51.032;6.998;2023-07-13T07:53:49;69.36;46.64;94.65;;
49568;Laerm;35474;51.032;6.998;2023-07-13T07:56:16;68.58;51.32;86.05;;
49568;Laerm;35474;51.032;6.998;2023-07-13T07:58:46;72.16;46.02;97.05;;
49568;Laerm;35474;51.032;6.998;2023-07-13T08:01:15;69.06;47.72;89.82;;
49568;Laerm;35474;51.032;6.998;2023-07-13T08:03:45;67.46;52.90;84.61;;
49568;Laerm;35474;51.032;6.998;2023-07-13T08:06:15;66.71;49.92;86.66;;
49568;Laerm;35474;51.032;6.998;2023-07-13T08:09:02;70.60;50.74;90.73;;
49568;Laerm;35474;51.032;6.998;2023-07-13T08:11:30;69.06;50.11;91.91;;
49568;Laerm;35474;51.032;6.998;2023-07-13T08:13:59;69.81;52.60;90.92;;
49568;Laerm;35474;51.032;6.998;2023-07-13T08:16:26;69.80;51.34;90.99;;
49568;Laerm;35474;51.032;6.998;2023-07-13T08:18:54;65.18;48.99;82.51;;
49568;Laerm;35474;51.032;6.998;2023-07-13T08:21:21;64.96;46.91;81.80;;
49568;Laerm;35474;51.032;6.998;2023-07-13T08:23:48;65.85;46.05;86.27;;
49568;Laerm;35474;51.032;6.998;2023-07-13T08:26:15;65.93;46.82;84.77;;
49568;Laerm;35474;51.032;6.998;2023-07-13T08:28:42;64.36;46.48;72.18;;
49568;Laerm;35474;51.032;6.998;2023-07-13T08:31:09;64.06;52.92;75.66;;
49568;Laerm;35474;51.032;6.998;2023-07-13T08:33:37;71.04;49.15;91.26;;
49568;Laerm;35474;51.032;6.998;2023-07-13T08:36:04;67.81;47.19;89.59;;
49568;Laerm;35474;51.032;6.998;2023-07-13T08:38:32;68.61;53.37;87.61;;
49568;Laerm;35474;51.032;6.998;2023-07-13T08:40:58;69.09;46.20;93.49;;
49568;Laerm;35474;51.032;6.998;2023-07-13T08:43:29;67.16;52.56;86.15;;
49568;Laerm;35474;51.032;6.998;2023-07-13T08:48:49;63.54;50.03;77.88;;
49568;Laerm;35474;51.032;6.998;2023-07-13T08:51:38;64.50;51.54;82.56;;
49568;Laerm;35474;51.032;6.998;2023-07-13T08:56:46;67.73;51.95;86.60;;
49568;Laerm;35474;51.032;6.998;2023-07-13T08:59:16;73.39;49.23;95.46;;
49568;Laerm;35474;51.032;6.998;2023-07-13T09:04:45;72.05;44.90;93.35;;
49568;Laerm;35474;51.032;6.998;2023-07-13T09:07:40;69.35;48.26;88.15;;
49568;Laerm;35474;51.032;6.998;2023-07-13T09:10:21;71.67;47.36;94.62;;
49568;Laerm;35474;51.032;6.998;2023-07-13T09:15:35;69.79;52.00;85.41;;
49568;Laerm;35474;51.032;6.998;2023-07-13T09:20:48;69.66;49.52;99.51;;
49568;Laerm;35474;51.032;6.998;2023-07-13T09:23:19;77.56;51.03;98.57;;
49568;Laerm;35474;51.032;6.998;2023-07-13T09:25:48;65.81;47.34;81.61;;
49568;Laerm;35474;51.032;6.998;2023-07-13T09:28:27;70.94;45.77;94.89;;
49568;Laerm;35474;51.032;6.998;2023-07-13T09:31:06;73.78;49.36;95.16;;
49568;Laerm;35474;51.032;6.998;2023-07-13T09:33:33;71.81;49.89;93.13;;
49568;Laerm;35474;51.032;6.998;2023-07-13T09:36:16;66.24;47.95;81.13;;
49568;Laerm;35474;51.032;6.998;2023-07-13T09:38:44;65.97;50.39;85.49;;
49568;Laerm;35474;51.032;6.998;2023-07-13T09:41:18;70.03;45.36;89.23;;
49568;Laerm;35474;51.032;6.998;2023-07-13T09:44:08;67.20;49.57;87.04;;
49568;Laerm;35474;51.032;6.998;2023-07-13T09:46:43;65.34;50.00;82.95;;
49568;Laerm;35474;51.032;6.998;2023-07-13T09:49:10;69.84;52.21;90.31;;
49568;Laerm;35474;51.032;6.998;2023-07-13T09:51:39;65.37;49.98;81.74;;
49568;Laerm;35474;51.032;6.998;2023-07-13T09:54:17;76.64;56.83;97.10;;
49568;Laerm;35474;51.032;6.998;2023-07-13T09:56:44;74.39;47.63;95.83;;
49568;Laerm;35474;51.032;6.998;2023-07-13T09:59:22;72.55;54.31;92.74;;
49568;Laerm;35474;51.032;6.998;2023-07-13T10:01:50;74.39;51.28;96.31;;
49568;Laerm;35474;51.032;6.998;2023-07-13T10:04:18;74.73;50.76;95.00;;
49568;Laerm;35474;51.032;6.998;2023-07-13T10:06:46;71.84;53.78;95.88;;
49568;Laerm;35474;51.032;6.998;2023-07-13T10:09:16;70.30;51.63;96.74;;
49568;Laerm;35474;51.032;6.998;2023-07-13T10:11:43;67.82;53.22;86.58;;
49568;Laerm;35474;51.032;6.998;2023-07-13T10:14:19;68.62;45.98;91.48;;
49568;Laerm;35474;51.032;6.998;2023-07-13T10:16:46;76.72;50.22;94.42;;
49568;Laerm;35474;51.032;6.998;2023-07-13T10:21:55;76.22;51.65;98.39;;
49568;Laerm;35474;51.032;6.998;2023-07-13T10:24:36;66.45;49.27;83.63;;
49568;Laerm;35474;51.032;6.998;2023-07-13T10:27:38;84.49;53.76;107.35;;
49568;Laerm;35474;51.032;6.998;2023-07-13T10:30:09;76.45;50.97;97.92;;
49568;Laerm;35474;51.032;6.998;2023-07-13T10:32:42;74.14;51.44;94.24;;
49568;Laerm;35474;51.032;6.998;2023-07-13T10:35:12;72.59;47.32;92.23;;
49568;Laerm;35474;51.032;6.998;2023-07-13T10:37:52;73.24;50.08;93.60;;
49568;Laerm;35474;51.032;6.998;2023-07-13T10:40:27;69.00;52.04;86.09;;
49568;Laerm;35474;51.032;6.998;2023-07-13T10:42:58;71.48;48.57;92.68;;
49568;Laerm;35474;51.032;6.998;2023-07-13T10:45:27;78.01;54.43;99.40;;
49568;Laerm;35474;51.032;6.998;2023-07-13T10:47:55;74.18;56.64;96.18;;
49568;Laerm;35474;51.032;6.998;2023-07-13T10:50:25;66.24;48.57;86.16;;
49568;Laerm;35474;51.032;6.998;2023-07-13T10:52:54;68.02;54.38;94.77;;
49568;Laerm;35474;51.032;6.998;2023-07-13T10:58:21;71.85;45.54;92.95;;
49568;Laerm;35474;51.032;6.998;2023-07-13T11:00:49;70.97;44.87;94.28;;
49568;Laerm;35474;51.032;6.998;2023-07-13T11:03:18;71.24;47.93;93.49;;
49568;Laerm;35474;51.032;6.998;2023-07-13T11:05:49;70.50;50.90;98.54;;
49568;Laerm;35474;51.032;6.998;2023-07-13T11:08:34;70.45;50.94;93.47;;
49568;Laerm;35474;51.032;6.998;2023-07-13T11:11:53;70.36;54.35;96.50;;
49568;Laerm;35474;51.032;6.998;2023-07-13T11:18:51;74.57;48.71;97.64;;
49568;Laerm;35474;51.032;6.998;2023-07-13T11:21:19;72.86;45.42;93.40;;
49568;Laerm;35474;51.032;6.998;2023-07-13T11:24:04;68.24;44.97;88.11;;
49568;Laerm;35474;51.032;6.998;2023-07-13T11:26:52;65.97;45.77;84.83;;
49568;Laerm;35474;51.032;6.998;2023-07-13T11:31:55;72.86;45.83;97.11;;
49568;Laerm;35474;51.032;6.998;2023-07-13T11:34:43;73.12;53.77;95.65;;
49568;Laerm;35474;51.032;6.998;2023-07-13T11:37:12;65.31;52.57;81.36;;
49568;Laerm;35474;51.032;6.998;2023-07-13T11:39:43;67.44;45.60;88.55;;
49568;Laerm;35474;51.032;6.998;2023-07-13T11:42:16;76.11;52.36;96.67;;
49568;Laerm;35474;51.032;6.998;2023-07-13T11:44:49;71.91;51.92;95.42;;
49568;Laerm;35474;51.032;6.998;2023-07-13T11:47:34;73.55;52.26;93.05;;
49568;Laerm;35474;51.032;6.998;2023-07-13T11:50:18;73.12;49.21;94.06;;
49568;Laerm;35474;51.032;6.998;2023-07-13T11:52:45;71.72;47.52;93.08;;
49568;Laerm;35474;51.032;6.998;2023-07-13T11:55:17;77.34;49.70;97.39;;
49568;Laerm;35474;51.032;6.998;2023-07-13T11:58:00;72.92;48.85;93.67;;
49568;Laerm;35474;51.032;6.998;2023-07-13T12:00:32;68.12;52.57;88.14;;
49568;Laerm;35474;51.032;6.998;2023-07-13T12:03:01;66.32;50.96;86.58;;
49568;Laerm;35474;51.032;6.998;2023-07-13T12:05:29;65.32;53.25;84.51;;
49568;Laerm;35474;51.032;6.998;2023-07-13T12:07:57;67.70;54.28;91.21;;
49568;Laerm;35474;51.032;6.998;2023-07-13T12:10:28;70.65;51.46;88.30;;
49568;Laerm;35474;51.032;6.998;2023-07-13T12:15:23;79.80;49.36;102.87;;
49568;Laerm;35474;51.032;6.998;2023-07-13T12:17:50;78.86;52.79;101.29;;
49568;Laerm;35474;51.032;6.998;2023-07-13T12:20:24;68.48;53.69;91.29;;
49568;Laerm;35474;51.032;6.998;2023-07-13T12:22:53;66.52;45.54;85.09;;
49568;Laerm;35474;51.032;6.998;2023-07-13T12:25:20;71.70;50.24;94.00;;
49568;Laerm;35474;51.032;6.998;2023-07-13T12:27:49;73.17;53.12;94.17;;
49568;Laerm;35474;51.032;6.998;2023-07-13T12:33:01;71.95;49.91;93.70;;
49568;Laerm;35474;51.032;6.998;2023-07-13T12:35:30;74.60;52.87;94.98;;
49568;Laerm;35474;51.032;6.998;2023-07-13T12:37:57;65.05;50.14;83.04;;
49568;Laerm;35474;51.032;6.998;2023-07-13T12:40:32;68.14;50.76;90.53;;
49568;Laerm;35474;51.032;6.998;2023-07-13T12:43:03;74.59;49.02;93.95;;
49568;Laerm;35474;51.032;6.998;2023-07-13T12:45:33;72.04;48.28;91.88;;
49568;Laerm;35474;51.032;6.998;2023-07-13T12:48:14;77.25;52.28;101.07;;
49568;Laerm;35474;51.032;6.998;2023-07-13T12:50:46;64.95;51.90;81.09;;
49568;Laerm;35474;51.032;6.998;2023-07-13T12:53:30;69.00;48.25;88.02;;
49568;Laerm;35474;51.032;6.998;2023-07-13T12:56:03;66.75;50.03;86.78;;
49568;Laerm;35474;51.032;6.998;2023-07-13T13:01:04;76.86;51.26;100.54;;
49568;Laerm;35474;51.032;6.998;2023-07-13T13:03:33;73.21;48.91;91.42;;
49568;Laerm;35474;51.032;6.998;2023-07-13T13:06:03;78.08;53.10;101.54;;
49568;Laerm;35474;51.032;6.998;2023-07-13T13:08:33;77.84;51.29;96.31;;
49568;Laerm;35474;51.032;6.998;2023-07-13T13:11:01;71.12;49.23;91.91;;
49568;Laerm;35474;51.032;6.998;2023-07-13T13:13:28;65.27;52.44;80.30;;
49568;Laerm;35474;51.032;6.998;2023-07-13T13:15:55;68.34;48.76;86.22;;
49568;Laerm;35474;51.032;6.998;2023-07-13T13:18:23;70.31;51.16;90.27;;
49568;Laerm;35474;51.032;6.998;2023-07-13T13:20:50;83.47;50.25;102.54;;
49568;Laerm;35474;51.032;6.998;2023-07-13T13:23:19;71.71;50.23;93.74;;
49568;Laerm;35474;51.032;6.998;2023-07-13T13:25:48;76.31;50.64;97.18;;
49568;Laerm;35474;51.032;6.998;2023-07-13T13:28:18;73.94;53.90;94.61;;
49568;Laerm;35474;51.032;6.998;2023-07-13T13:30:46;82.66;58.81;102.16;;
49568;Laerm;35474;51.032;6.998;2023-07-13T13:33:16;77.65;50.72;99.07;;
49568;Laerm;35474;51.032;6.998;2023-07-13T13:35:43;77.25;57.57;96.24;;
49568;Laerm;35474;51.032;6.998;2023-07-13T13:40:38;74.34;55.49;100.26;;
49568;Laerm;35474;51.032;6.998;2023-07-13T13:43:13;74.95;48.07;97.64;;
49568;Laerm;35474;51.032;6.998;2023-07-13T13:45:42;69.24;57.44;88.00;;
49568;Laerm;35474;51.032;6.998;2023-07-13T13:48:20;66.34;49.58;84.67;;
49568;Laerm;35474;51.032;6.998;2023-07-13T13:50:48;75.15;47.93;94.08;;
49568;Laerm;35474;51.032;6.998;2023-07-13T13:53:15;67.25;51.00;82.73;;
49568;Laerm;35474;51.032;6.998;2023-07-13T13:55:43;76.10;55.15;94.76;;
49568;Laerm;35474;51.032;6.998;2023-07-13T13:58:10;76.56;45.66;98.99;;
49568;Laerm;35474;51.032;6.998;2023-07-13T14:00:37;80.52;50.59;99.36;;
49568;Laerm;35474;51.032;6.998;2023-07-13T14:03:20;70.45;55.95;90.68;;
49568;Laerm;35474;51.032;6.998;2023-07-13T14:05:48;70.49;53.25;88.48;;
49568;Laerm;35474;51.032;6.998;2023-07-13T14:08:17;77.17;52.38;98.51;;
49568;Laerm;35474;51.032;6.998;2023-07-13T14:10:52;67.40;53.71;84.44;;
49568;Laerm;35474;51.032;6.998;2023-07-13T14:13:43;70.22;51.54;89.45;;
49568;Laerm;35474;51.032;6.998;2023-07-13T14:16:16;73.04;55.45;94.16;;
49568;Laerm;35474;51.032;6.998;2023-07-13T14:18:47;74.89;51.16;97.91;;
49568;Laerm;35474;51.032;6.998;2023-07-13T14:21:16;75.06;50.54;92.11;;
49568;Laerm;35474;51.032;6.998;2023-07-13T14:23:45;75.46;53.30;91.76;;
49568;Laerm;35474;51.032;6.998;2023-07-13T14:26:20;77.44;57.26;98.53;;
49568;Laerm;35474;51.032;6.998;2023-07-13T14:28:49;81.29;49.16;101.10;;
49568;Laerm;35474;51.032;6.998;2023-07-13T14:31:17;76.62;49.91;96.74;;
49568;Laerm;35474;51.032;6.998;2023-07-13T14:33:44;77.66;51.50;96.44;;
49568;Laerm;35474;51.032;6.998;2023-07-13T14:36:32;80.58;49.81;100.10;;